Time;durP1;ratioP1;P1;durP2;ratioP2;P2;SDS_P1;SDS_P2;PMS_P1;PMS_P2;Temp;Humidity;BMP_temperature;BMP_pressure;BME280_temperature;BME280_humidity;BME280_pressure;Samples;Min_cycle;Max_cycle;Signal;HPM_P1;HPM_P2
2022/03/11 11:02:11;;;;;;;82.70;45.70;;;;;;;;;;5081944;28;20455;-74
2022/03/11 11:04:39;;;;;;;84.30;44.35;;;;;;;;;;5048477;28;20036;-74
2022/03/11 11:07:07;;;;;;;92.05;46.25;;;;;;;;;;5048325;28;20028;-75
2022/03/11 11:09:34;;;;;;;81.68;47.35;;;;;;;;;;5048273;27;20025;-74
2022/03/11 11:12:03;;;;;;;89.28;50.50;;;;;;;;;;5049342;28;20031;-74
2022/03/11 11:14:31;;;;;;;81.00;44.58;;;;;;;;;;5048267;28;20044;-73
2022/03/11 11:17:01;;;;;;;137.30;87.68;;;;;;;;;;5049330;28;20033;-74
2022/03/11 11:19:30;;;;;;;134.40;73.13;;;;;;;;;;5049293;28;20029;-72
2022/03/11 11:21:57;;;;;;;90.90;51.95;;;;;;;;;;5049445;28;20128;-73
2022/03/11 11:24:25;;;;;;;100.97;57.78;;;;;;;;;;5049367;28;20074;-73
2022/03/11 11:26:54;;;;;;;111.47;58.53;;;;;;;;;;5048312;28;20017;-74
2022/03/11 11:29:26;;;;;;;108.43;58.00;;;;;;;;;;5048323;28;20022;-73
2022/03/11 11:31:54;;;;;;;96.55;55.30;;;;;;;;;;5049299;28;20025;-74
2022/03/11 11:34:35;;;;;;;91.15;51.25;;;;;;;;;;5048030;27;20299;-72
2022/03/11 11:37:03;;;;;;;101.47;55.00;;;;;;;;;;5048120;28;20025;-73
2022/03/11 11:39:38;;;;;;;96.65;55.65;;;;;;;;;;5049456;27;20029;-73
2022/03/11 11:42:10;;;;;;;100.13;56.35;;;;;;;;;;5049306;28;20082;-72
2022/03/11 11:44:38;;;;;;;90.95;51.25;;;;;;;;;;5048258;27;20363;-73
2022/03/11 11:47:11;;;;;;;100.22;48.38;;;;;;;;;;5049262;28;20302;-73
2022/03/11 11:49:46;;;;;;;93.07;51.80;;;;;;;;;;5049124;28;20044;-72
2022/03/11 11:52:26;;;;;;;93.38;50.92;;;;;;;;;;5048935;28;20022;-72
2022/03/11 11:54:53;;;;;;;95.40;50.85;;;;;;;;;;5049071;28;20085;-72
2022/03/11 11:57:23;;;;;;;205.88;121.80;;;;;;;;;;5047841;27;20033;-73
2022/03/11 11:59:49;;;;;;;100.32;54.95;;;;;;;;;;5048457;28;20154;-74
2022/03/11 12:02:32;;;;;;;87.78;47.92;;;;;;;;;;5049033;28;20029;-73
2022/03/11 12:05:00;;;;;;;95.53;52.95;;;;;;;;;;5048973;28;20025;-73
2022/03/11 12:07:45;;;;;;;98.05;52.58;;;;;;;;;;5047787;28;20413;-73
2022/03/11 12:10:26;;;;;;;93.47;49.83;;;;;;;;;;5047626;28;20063;-72
2022/03/11 12:12:58;;;;;;;124.93;68.97;;;;;;;;;;5038792;28;20029;-73
2022/03/11 12:15:27;;;;;;;126.85;67.10;;;;;;;;;;5035507;28;20021;-73
2022/03/11 12:17:59;;;;;;;108.13;63.63;;;;;;;;;;5035465;28;20322;-72
2022/03/11 12:20:37;;;;;;;124.57;66.20;;;;;;;;;;5035416;28;20025;-73
2022/03/11 12:23:18;;;;;;;107.60;58.08;;;;;;;;;;5035368;28;20032;-73
2022/03/11 12:25:54;;;;;;;98.07;50.80;;;;;;;;;;5034278;28;20028;-73
2022/03/11 12:28:41;;;;;;;98.53;48.15;;;;;;;;;;5092804;27;20015;-73
2022/03/11 12:31:35;;;;;;;82.05;45.55;;;;;;;;;;5139564;27;20353;-71
2022/03/11 12:34:06;;;;;;;87.50;46.85;;;;;;;;;;5135969;27;20031;-73
2022/03/11 12:36:34;;;;;;;103.82;50.97;;;;;;;;;;5138392;27;20319;-73
2022/03/11 12:39:01;;;;;;;115.28;53.42;;;;;;;;;;5139549;27;20023;-73
2022/03/11 12:41:31;;;;;;;112.75;52.92;;;;;;;;;;5139376;27;20318;-72
2022/03/11 12:44:02;;;;;;;108.78;55.17;;;;;;;;;;5139152;27;20475;-71
2022/03/11 12:46:30;;;;;;;143.05;57.10;;;;;;;;;;5139272;27;20019;-71
2022/03/11 12:48:58;;;;;;;122.72;59.55;;;;;;;;;;5139307;27;20030;-72
2022/03/11 12:51:26;;;;;;;115.38;57.72;;;;;;;;;;5139246;27;20023;-71
2022/03/11 12:53:54;;;;;;;123.97;59.28;;;;;;;;;;5139183;27;20031;-72
2022/03/11 12:56:23;;;;;;;110.15;52.05;;;;;;;;;;5139080;27;20068;-73
2022/03/11 12:58:53;;;;;;;100.70;51.33;;;;;;;;;;5138827;27;20031;-72
2022/03/11 13:01:20;;;;;;;108.88;51.83;;;;;;;;;;5138972;27;20134;-73
2022/03/11 13:03:50;;;;;;;118.75;55.78;;;;;;;;;;5139091;27;20440;-74
2022/03/11 13:06:18;;;;;;;182.18;80.88;;;;;;;;;;5139019;27;20019;-72
2022/03/11 13:08:47;;;;;;;172.63;87.25;;;;;;;;;;5137473;27;20023;-72
2022/03/11 13:11:15;;;;;;;168.27;89.90;;;;;;;;;;5137774;27;20026;-72
2022/03/11 13:13:44;;;;;;;156.95;81.07;;;;;;;;;;5137770;27;20031;-72
2022/03/11 13:16:12;;;;;;;154.73;74.32;;;;;;;;;;5138757;27;20051;-72
2022/03/11 13:18:43;;;;;;;140.40;73.35;;;;;;;;;;5138757;27;20027;-72
2022/03/11 13:21:15;;;;;;;299.95;150.25;;;;;;;;;;5138518;27;20030;-71
2022/03/11 13:23:46;;;;;;;241.30;120.50;;;;;;;;;;5137591;27;20038;-72
2022/03/11 13:26:23;;;;;;;237.65;110.95;;;;;;;;;;5137486;27;20015;-72
2022/03/11 13:28:54;;;;;;;220.32;107.57;;;;;;;;;;5138505;27;20035;-73
2022/03/11 13:31:33;;;;;;;187.00;92.70;;;;;;;;;;5138538;27;20019;-73
2022/03/11 13:34:07;;;;;;;201.10;99.32;;;;;;;;;;5137406;27;20478;-73
2022/03/11 13:36:41;;;;;;;151.65;80.07;;;;;;;;;;5138382;27;20031;-73
2022/03/11 13:39:23;;;;;;;157.95;82.60;;;;;;;;;;5138474;27;20087;-73
2022/03/11 13:41:52;;;;;;;155.50;77.97;;;;;;;;;;5138139;27;20087;-72
2022/03/11 13:44:41;;;;;;;138.13;71.82;;;;;;;;;;5138175;27;20713;-73
2022/03/11 13:47:26;;;;;;;142.88;76.57;;;;;;;;;;5138031;27;20137;-73
2022/03/11 13:49:53;;;;;;;145.38;71.22;;;;;;;;;;5137998;27;20022;-73
2022/03/11 13:52:25;;;;;;;155.60;76.88;;;;;;;;;;5138070;27;20098;-73
2022/03/11 13:55:10;;;;;;;135.02;73.28;;;;;;;;;;5137858;27;20015;-74
2022/03/11 13:57:38;;;;;;;128.05;66.55;;;;;;;;;;5137907;27;20034;-73
2022/03/11 14:00:22;;;;;;;133.00;66.93;;;;;;;;;;5137396;27;20051;-74
2022/03/11 14:02:49;;;;;;;124.18;63.40;;;;;;;;;;5136752;27;20336;-72
2022/03/11 14:05:19;;;;;;;135.95;67.00;;;;;;;;;;5137884;27;20463;-73
2022/03/11 14:07:48;;;;;;;133.50;65.93;;;;;;;;;;5137740;27;20428;-72
2022/03/11 14:10:24;;;;;;;146.30;71.47;;;;;;;;;;5137693;27;20019;-73
2022/03/11 14:13:02;;;;;;;196.98;92.75;;;;;;;;;;5137687;27;20027;-72
2022/03/11 14:15:33;;;;;;;170.25;83.68;;;;;;;;;;5137679;27;20020;-72
2022/03/11 14:18:02;;;;;;;204.13;117.25;;;;;;;;;;5137584;27;20027;-73
2022/03/11 14:20:31;;;;;;;176.80;88.38;;;;;;;;;;5136044;27;20107;-73
2022/03/11 14:22:58;;;;;;;152.40;79.22;;;;;;;;;;5137469;27;20022;-72
2022/03/11 14:25:27;;;;;;;131.95;68.53;;;;;;;;;;5137549;27;20027;-72
2022/03/11 14:27:55;;;;;;;123.40;58.88;;;;;;;;;;5137470;27;20016;-73
2022/03/11 14:30:23;;;;;;;112.50;54.63;;;;;;;;;;5137442;27;20023;-72
2022/03/11 14:32:50;;;;;;;94.47;51.35;;;;;;;;;;5137349;27;20055;-73
2022/03/11 14:35:18;;;;;;;100.43;51.42;;;;;;;;;;5135874;27;20061;-72
2022/03/11 14:37:46;;;;;;;100.57;49.67;;;;;;;;;;5136248;27;20034;-72
2022/03/11 14:40:14;;;;;;;95.95;49.30;;;;;;;;;;5137194;27;20020;-74
2022/03/11 14:42:43;;;;;;;88.90;46.53;;;;;;;;;;5137158;27;20094;-71
2022/03/11 14:45:11;;;;;;;82.78;43.63;;;;;;;;;;5137202;27;20023;-72
2022/03/11 14:47:40;;;;;;;87.60;44.83;;;;;;;;;;5137124;27;20361;-72
2022/03/11 14:50:09;;;;;;;100.68;45.22;;;;;;;;;;5137215;27;20034;-72
2022/03/11 14:52:38;;;;;;;94.88;44.83;;;;;;;;;;5137174;27;20019;-71
2022/03/11 14:55:06;;;;;;;93.18;45.80;;;;;;;;;;5136028;27;20023;-73
2022/03/11 14:57:36;;;;;;;94.35;46.03;;;;;;;;;;5137057;27;20098;-72
2022/03/11 15:00:03;;;;;;;91.43;44.65;;;;;;;;;;5135329;28;20035;-72
2022/03/11 15:02:31;;;;;;;99.13;45.78;;;;;;;;;;5114137;28;20025;-71
2022/03/11 15:04:59;;;;;;;105.20;48.00;;;;;;;;;;5132674;28;20050;-71
2022/03/11 15:07:26;;;;;;;94.20;48.10;;;;;;;;;;5137024;28;20087;-71
2022/03/11 15:09:54;;;;;;;107.93;49.65;;;;;;;;;;5136625;28;20091;-75
2022/03/11 15:12:22;;;;;;;117.13;50.92;;;;;;;;;;5135809;28;20323;-72
2022/03/11 15:14:51;;;;;;;90.07;44.53;;;;;;;;;;5135799;28;20027;-71
2022/03/11 15:17:19;;;;;;;93.95;46.10;;;;;;;;;;5135865;28;20027;-72
2022/03/11 15:19:47;;;;;;;101.80;47.10;;;;;;;;;;5136882;28;20096;-71
2022/03/11 15:22:14;;;;;;;86.78;43.28;;;;;;;;;;5136796;28;20027;-71
2022/03/11 15:24:43;;;;;;;88.57;44.10;;;;;;;;;;5136802;28;20030;-71
2022/03/11 15:27:10;;;;;;;95.25;45.63;;;;;;;;;;5136786;28;20015;-72
2022/03/11 15:29:37;;;;;;;89.93;45.25;;;;;;;;;;5135696;28;20019;-72
2022/03/11 15:32:05;;;;;;;104.35;50.53;;;;;;;;;;5135495;28;20160;-71
2022/03/11 15:34:32;;;;;;;109.75;50.65;;;;;;;;;;5136540;28;20021;-71
2022/03/11 15:37:00;;;;;;;100.43;48.33;;;;;;;;;;5135617;28;20050;-71
2022/03/11 15:39:28;;;;;;;103.68;49.88;;;;;;;;;;5136707;28;20024;-71
2022/03/11 15:41:56;;;;;;;89.28;45.25;;;;;;;;;;5136468;28;20027;-70
2022/03/11 15:44:23;;;;;;;92.82;45.85;;;;;;;;;;5136569;28;20023;-70
2022/03/11 15:46:51;;;;;;;97.72;44.45;;;;;;;;;;5135958;27;20118;-70
2022/03/11 15:49:19;;;;;;;92.85;44.33;;;;;;;;;;5140545;27;20090;-70
2022/03/11 15:51:49;;;;;;;95.47;45.33;;;;;;;;;;5139399;27;20038;-71
2022/03/11 15:54:17;;;;;;;82.22;43.63;;;;;;;;;;5140511;27;20055;-71
2022/03/11 15:56:45;;;;;;;86.25;42.60;;;;;;;;;;5140476;27;20023;-72
2022/03/11 15:59:13;;;;;;;82.75;40.55;;;;;;;;;;5140331;27;20030;-71
2022/03/11 16:01:39;;;;;;;78.20;38.58;;;;;;;;;;5140041;27;20055;-71
2022/03/11 16:04:07;;;;;;;82.40;37.92;;;;;;;;;;5140151;27;20438;-70
2022/03/11 16:06:34;;;;;;;77.93;34.33;;;;;;;;;;5140244;27;20023;-72
2022/03/11 16:09:02;;;;;;;71.13;32.83;;;;;;;;;;5140194;27;20090;-71
2022/03/11 16:11:30;;;;;;;68.78;34.10;;;;;;;;;;5140136;27;20072;-71
2022/03/11 16:13:57;;;;;;;68.25;30.83;;;;;;;;;;5138879;27;20114;-72
2022/03/11 16:16:25;;;;;;;67.15;29.42;;;;;;;;;;5139995;27;20073;-71
2022/03/11 16:18:53;;;;;;;55.30;27.95;;;;;;;;;;5139945;27;20411;-72
2022/03/11 16:21:21;;;;;;;63.25;27.40;;;;;;;;;;5139852;27;20062;-72
2022/03/11 16:23:48;;;;;;;58.17;25.83;;;;;;;;;;5138703;27;20106;-71
2022/03/11 16:26:22;;;;;;;66.15;28.13;;;;;;;;;;5139853;27;20011;-73
2022/03/11 16:28:49;;;;;;;60.67;27.85;;;;;;;;;;5138066;27;20028;-71
2022/03/11 16:31:17;;;;;;;61.38;29.10;;;;;;;;;;5138647;27;20075;-71
2022/03/11 16:33:47;;;;;;;59.47;29.40;;;;;;;;;;5139404;27;20015;-70
2022/03/11 16:36:15;;;;;;;59.47;28.60;;;;;;;;;;5139328;27;20019;-73
2022/03/11 16:38:43;;;;;;;62.55;30.25;;;;;;;;;;5139415;27;20365;-72
2022/03/11 16:41:10;;;;;;;61.28;30.77;;;;;;;;;;5139463;27;20027;-71
2022/03/11 16:43:37;;;;;;;62.83;29.90;;;;;;;;;;5139377;27;20027;-71
2022/03/11 16:46:06;;;;;;;65.22;30.45;;;;;;;;;;5139365;27;20096;-72
2022/03/11 16:48:34;;;;;;;71.13;33.75;;;;;;;;;;5139362;27;20019;-72
2022/03/11 16:51:01;;;;;;;75.32;32.40;;;;;;;;;;5139300;27;20415;-71
2022/03/11 16:53:29;;;;;;;74.38;33.25;;;;;;;;;;5137816;27;20027;-72
2022/03/11 16:55:57;;;;;;;73.90;33.75;;;;;;;;;;5138996;27;20019;-72
2022/03/11 16:58:24;;;;;;;73.10;35.92;;;;;;;;;;5139017;27;20023;-72
2022/03/11 17:00:51;;;;;;;73.05;36.13;;;;;;;;;;5137740;27;20339;-71
2022/03/11 17:03:19;;;;;;;72.45;34.22;;;;;;;;;;5139107;27;20412;-73
2022/03/11 17:05:46;;;;;;;70.53;33.42;;;;;;;;;;5139142;27;20023;-72
2022/03/11 17:08:14;;;;;;;63.00;31.38;;;;;;;;;;5139008;27;20015;-72
2022/03/11 17:10:41;;;;;;;59.78;29.25;;;;;;;;;;5138928;27;20463;-73
2022/03/11 17:13:09;;;;;;;51.67;27.08;;;;;;;;;;5138936;27;20416;-73
2022/03/11 17:15:37;;;;;;;62.65;29.35;;;;;;;;;;5138927;27;20067;-72
2022/03/11 17:18:05;;;;;;;63.80;28.98;;;;;;;;;;5137780;27;20039;-71
2022/03/11 17:20:33;;;;;;;59.35;27.42;;;;;;;;;;5137646;27;20110;-71
2022/03/11 17:23:04;;;;;;;57.58;26.50;;;;;;;;;;5137609;27;20106;-72
2022/03/11 17:25:35;;;;;;;55.92;27.05;;;;;;;;;;5138644;27;20022;-71
2022/03/11 17:28:04;;;;;;;55.65;27.00;;;;;;;;;;5138611;27;20027;-72
2022/03/11 17:30:32;;;;;;;65.68;29.10;;;;;;;;;;5138487;27;20023;-71
2022/03/11 17:33:00;;;;;;;67.15;29.48;;;;;;;;;;5137428;27;20023;-70
2022/03/11 17:35:27;;;;;;;60.97;29.55;;;;;;;;;;5137344;27;20080;-71
2022/03/11 17:37:55;;;;;;;64.18;31.15;;;;;;;;;;5137278;27;20027;-71
2022/03/11 17:40:22;;;;;;;68.05;32.05;;;;;;;;;;5137159;27;20026;-71
2022/03/11 17:42:50;;;;;;;70.45;37.60;;;;;;;;;;5138362;27;20038;-72
2022/03/11 17:45:18;;;;;;;62.90;32.55;;;;;;;;;;5137226;27;20019;-71
2022/03/11 17:47:45;;;;;;;62.60;28.67;;;;;;;;;;5138129;27;20408;-72
2022/03/11 17:50:14;;;;;;;57.25;28.60;;;;;;;;;;5138098;27;20023;-72
2022/03/11 17:52:41;;;;;;;59.75;27.95;;;;;;;;;;5136864;27;20027;-71
2022/03/11 17:55:11;;;;;;;49.42;26.08;;;;;;;;;;5136434;27;20095;-71
2022/03/11 17:57:39;;;;;;;52.30;24.65;;;;;;;;;;5136260;27;20023;-71
2022/03/11 18:00:06;;;;;;;51.78;24.95;;;;;;;;;;5137308;27;20353;-72
2022/03/11 18:02:34;;;;;;;51.92;24.63;;;;;;;;;;5137806;27;20022;-71
2022/03/11 18:05:01;;;;;;;46.78;23.00;;;;;;;;;;5137842;27;20114;-71
2022/03/11 18:07:29;;;;;;;42.85;21.00;;;;;;;;;;5137023;27;20336;-72
2022/03/11 18:09:57;;;;;;;52.17;21.65;;;;;;;;;;5137156;27;20442;-71
2022/03/11 18:12:28;;;;;;;49.70;21.40;;;;;;;;;;5050832;27;20030;-72
2022/03/11 18:14:56;;;;;;;58.05;23.65;;;;;;;;;;5033416;28;20026;-71
2022/03/11 18:17:23;;;;;;;50.63;24.10;;;;;;;;;;5033467;28;20025;-71
2022/03/11 18:19:51;;;;;;;52.42;25.05;;;;;;;;;;5033539;28;20033;-71
2022/03/11 18:22:21;;;;;;;54.70;25.00;;;;;;;;;;5033472;28;20029;-71
2022/03/11 18:24:48;;;;;;;57.05;26.10;;;;;;;;;;5033517;28;20024;-71
2022/03/11 18:27:16;;;;;;;55.47;25.55;;;;;;;;;;5033488;28;20442;-70
2022/03/11 18:29:43;;;;;;;50.47;25.42;;;;;;;;;;5032218;28;20026;-72
2022/03/11 18:32:11;;;;;;;56.92;27.05;;;;;;;;;;5033349;28;20033;-71
2022/03/11 18:34:41;;;;;;;53.13;27.30;;;;;;;;;;5033196;28;20026;-69
2022/03/11 18:37:12;;;;;;;57.63;28.60;;;;;;;;;;5033092;28;20033;-69
2022/03/11 18:39:40;;;;;;;61.22;29.58;;;;;;;;;;5033442;28;20449;-70
2022/03/11 18:42:08;;;;;;;55.97;28.95;;;;;;;;;;5033270;28;20030;-70
2022/03/11 18:44:35;;;;;;;59.70;31.38;;;;;;;;;;5033334;28;20047;-71
2022/03/11 18:47:03;;;;;;;62.83;32.70;;;;;;;;;;5033242;28;20017;-71
2022/03/11 18:49:31;;;;;;;66.47;36.70;;;;;;;;;;5033195;28;20029;-71
2022/03/11 18:52:00;;;;;;;71.78;37.30;;;;;;;;;;5033281;28;20071;-71
2022/03/11 18:54:28;;;;;;;84.38;41.83;;;;;;;;;;5032135;28;20031;-71
2022/03/11 18:56:56;;;;;;;81.07;43.70;;;;;;;;;;5032035;28;20367;-70
2022/03/11 18:59:23;;;;;;;87.25;45.25;;;;;;;;;;5033054;28;20034;-71
2022/03/11 19:01:52;;;;;;;87.63;47.20;;;;;;;;;;5031664;28;20400;-70
2022/03/11 19:04:20;;;;;;;93.85;48.17;;;;;;;;;;5033016;28;20013;-70
2022/03/11 19:06:48;;;;;;;88.30;48.55;;;;;;;;;;5033038;28;20022;-71
2022/03/11 19:09:16;;;;;;;91.03;48.25;;;;;;;;;;5032977;28;20029;-71
2022/03/11 19:11:43;;;;;;;96.20;49.28;;;;;;;;;;5032936;28;20101;-71
2022/03/11 19:14:11;;;;;;;92.22;49.97;;;;;;;;;;5032862;28;20037;-71
2022/03/11 19:16:39;;;;;;;92.20;50.58;;;;;;;;;;5031902;28;20329;-70
2022/03/11 19:19:07;;;;;;;94.82;51.95;;;;;;;;;;5031874;28;20414;-70
2022/03/11 19:21:34;;;;;;;98.18;52.58;;;;;;;;;;5032770;28;20036;-70
2022/03/11 19:24:02;;;;;;;106.38;54.22;;;;;;;;;;5036482;28;20040;-71
2022/03/11 19:26:31;;;;;;;99.85;53.90;;;;;;;;;;5036309;28;20306;-70
2022/03/11 19:28:58;;;;;;;98.38;56.25;;;;;;;;;;5035018;28;20022;-70
2022/03/11 19:31:38;;;;;;;97.20;55.75;;;;;;;;;;5035214;28;20422;-70
2022/03/11 19:34:07;;;;;;;101.07;55.70;;;;;;;;;;5036176;28;20325;-70
2022/03/11 19:36:36;;;;;;;102.35;55.47;;;;;;;;;;5036125;28;20026;-69
2022/03/11 19:39:06;;;;;;;103.68;54.55;;;;;;;;;;5034933;28;20334;-69
2022/03/11 19:41:36;;;;;;;108.25;59.33;;;;;;;;;;5036025;28;20196;-69
2022/03/11 19:44:05;;;;;;;95.50;52.45;;;;;;;;;;5035955;28;20043;-70
2022/03/11 19:46:34;;;;;;;87.40;46.75;;;;;;;;;;5034805;28;20025;-70
2022/03/11 19:49:02;;;;;;;84.18;45.63;;;;;;;;;;5035896;28;20053;-70
2022/03/11 19:51:33;;;;;;;91.13;46.15;;;;;;;;;;5034755;28;20678;-70
2022/03/11 19:54:04;;;;;;;78.07;42.13;;;;;;;;;;5035698;28;20082;-71
2022/03/11 19:56:34;;;;;;;84.32;44.85;;;;;;;;;;5035640;28;20025;-70
2022/03/11 19:59:06;;;;;;;78.90;45.17;;;;;;;;;;5034242;28;20029;-71
2022/03/11 20:01:35;;;;;;;86.80;45.35;;;;;;;;;;5035486;28;20064;-70
2022/03/11 20:04:02;;;;;;;94.97;52.42;;;;;;;;;;5035698;28;20333;-70
2022/03/11 20:06:29;;;;;;;94.40;54.33;;;;;;;;;;5035636;28;20095;-69
2022/03/11 20:08:58;;;;;;;96.00;49.58;;;;;;;;;;5035603;28;20096;-69
2022/03/11 20:11:26;;;;;;;79.53;44.78;;;;;;;;;;5035568;28;20021;-70
2022/03/11 20:14:00;;;;;;;82.07;43.92;;;;;;;;;;5035451;28;20049;-70
2022/03/11 20:16:29;;;;;;;82.25;43.55;;;;;;;;;;5035421;28;20359;-70
2022/03/11 20:18:57;;;;;;;81.65;43.97;;;;;;;;;;5035493;28;20379;-70
2022/03/11 20:21:25;;;;;;;77.13;40.33;;;;;;;;;;5035244;28;20025;-70
2022/03/11 20:23:53;;;;;;;76.70;42.13;;;;;;;;;;5035753;28;20022;-71
2022/03/11 20:26:21;;;;;;;73.53;42.20;;;;;;;;;;5035319;28;20570;-69
2022/03/11 20:28:48;;;;;;;79.07;42.00;;;;;;;;;;5035189;28;20350;-69
2022/03/11 20:31:16;;;;;;;79.20;43.00;;;;;;;;;;5035242;28;20021;-70
2022/03/11 20:33:43;;;;;;;67.68;39.83;;;;;;;;;;5033659;28;20029;-69
2022/03/11 20:36:11;;;;;;;65.65;37.10;;;;;;;;;;5035158;28;20036;-69
2022/03/11 20:38:39;;;;;;;73.22;39.80;;;;;;;;;;5035165;28;20034;-70
2022/03/11 20:41:07;;;;;;;68.05;37.53;;;;;;;;;;5035050;28;20074;-70
2022/03/11 20:43:34;;;;;;;65.80;35.22;;;;;;;;;;5033935;28;20017;-69
2022/03/11 20:46:02;;;;;;;62.22;34.15;;;;;;;;;;5033900;28;20063;-69
2022/03/11 20:48:30;;;;;;;62.00;33.05;;;;;;;;;;5034959;28;20074;-69
2022/03/11 20:50:58;;;;;;;66.22;36.75;;;;;;;;;;5034888;28;20432;-69
2022/03/11 20:53:26;;;;;;;55.78;31.55;;;;;;;;;;5034028;28;20319;-69
2022/03/11 20:55:54;;;;;;;59.08;30.90;;;;;;;;;;5033678;28;20036;-69
2022/03/11 20:58:22;;;;;;;52.08;28.17;;;;;;;;;;5033662;28;20506;-70
2022/03/11 21:00:48;;;;;;;51.38;29.33;;;;;;;;;;5034673;28;20049;-69
2022/03/11 21:03:17;;;;;;;52.38;27.20;;;;;;;;;;5033972;28;20387;-70
2022/03/11 21:05:45;;;;;;;55.67;28.02;;;;;;;;;;5034641;28;20077;-69
2022/03/11 21:08:12;;;;;;;46.63;25.70;;;;;;;;;;5034611;28;20428;-70
2022/03/11 21:10:41;;;;;;;37.78;21.98;;;;;;;;;;5033603;28;20025;-70
2022/03/11 21:13:13;;;;;;;42.95;23.80;;;;;;;;;;5033582;28;20043;-70
2022/03/11 21:15:42;;;;;;;53.05;27.05;;;;;;;;;;5034500;28;20084;-70
2022/03/11 21:18:11;;;;;;;40.70;23.65;;;;;;;;;;5033478;28;20049;-70
2022/03/11 21:20:39;;;;;;;40.63;23.88;;;;;;;;;;5033375;28;20057;-71
2022/03/11 21:23:10;;;;;;;27.73;15.23;;;;;;;;;;5034761;28;20104;-69
2022/03/11 21:25:46;;;;;;;29.52;17.25;;;;;;;;;;5034452;28;20097;-71
2022/03/11 21:28:18;;;;;;;32.10;17.25;;;;;;;;;;5034180;28;20474;-70
2022/03/11 21:30:48;;;;;;;37.58;19.95;;;;;;;;;;5034325;28;20026;-70
2022/03/11 21:33:16;;;;;;;41.17;21.42;;;;;;;;;;5033259;28;20377;-69
2022/03/11 21:35:43;;;;;;;37.08;20.52;;;;;;;;;;5034188;28;20064;-70
2022/03/11 21:38:11;;;;;;;37.05;18.67;;;;;;;;;;5034205;28;20037;-71
2022/03/11 21:40:38;;;;;;;30.35;16.77;;;;;;;;;;5034064;28;20036;-71
2022/03/11 21:43:09;;;;;;;26.45;14.80;;;;;;;;;;5034198;28;20028;-71
2022/03/11 21:45:39;;;;;;;27.52;15.80;;;;;;;;;;5032085;28;20033;-71
2022/03/11 21:48:08;;;;;;;24.00;12.02;;;;;;;;;;5034067;28;20456;-71
2022/03/11 21:50:36;;;;;;;20.35;12.27;;;;;;;;;;5032913;28;20030;-70
2022/03/11 21:53:04;;;;;;;25.38;14.02;;;;;;;;;;5033930;28;20104;-70
2022/03/11 21:55:32;;;;;;;20.17;11.80;;;;;;;;;;5032803;28;20355;-71
2022/03/11 21:57:59;;;;;;;15.52;9.50;;;;;;;;;;5033805;28;20029;-71
2022/03/11 22:00:26;;;;;;;17.17;9.60;;;;;;;;;;5033659;28;20045;-71
2022/03/11 22:02:58;;;;;;;18.88;10.45;;;;;;;;;;5032791;28;20017;-71
2022/03/11 22:05:26;;;;;;;20.63;10.75;;;;;;;;;;5033826;28;20040;-71
2022/03/11 22:07:53;;;;;;;18.45;9.77;;;;;;;;;;5032950;28;20070;-70
2022/03/11 22:10:22;;;;;;;14.65;8.15;;;;;;;;;;5033747;28;20537;-70
2022/03/11 22:12:49;;;;;;;14.43;9.57;;;;;;;;;;5032614;28;20088;-70
2022/03/11 22:15:17;;;;;;;21.55;10.30;;;;;;;;;;5033676;28;20445;-70
2022/03/11 22:17:45;;;;;;;13.32;6.25;;;;;;;;;;5032351;28;20026;-70
2022/03/11 22:20:12;;;;;;;9.15;5.53;;;;;;;;;;5033426;28;20025;-69
2022/03/11 22:22:41;;;;;;;10.65;4.95;;;;;;;;;;5033657;28;20137;-69
2022/03/11 22:25:08;;;;;;;12.98;6.00;;;;;;;;;;5033471;28;20022;-70
2022/03/11 22:27:36;;;;;;;14.77;6.88;;;;;;;;;;5033371;28;20022;-69
2022/03/11 22:30:05;;;;;;;13.63;7.43;;;;;;;;;;5032317;28;20051;-70
2022/03/11 22:32:33;;;;;;;14.38;7.68;;;;;;;;;;5033324;28;20026;-69
2022/03/11 22:35:01;;;;;;;23.95;9.25;;;;;;;;;;5033292;28;20044;-70
2022/03/11 22:37:29;;;;;;;14.15;7.45;;;;;;;;;;5033313;28;20025;-70
2022/03/11 22:39:57;;;;;;;13.40;7.90;;;;;;;;;;5032223;28;20029;-70
2022/03/11 22:42:25;;;;;;;12.25;7.28;;;;;;;;;;5033045;28;20049;-70
2022/03/11 22:44:52;;;;;;;13.40;7.35;;;;;;;;;;5032074;28;20022;-69
2022/03/11 22:47:21;;;;;;;17.02;8.20;;;;;;;;;;5033184;28;20029;-70
2022/03/11 22:50:27;;;;;;;12.40;7.47;;;;;;;;;;5032048;28;20105;-70
2022/03/11 22:52:37;;;;;;;12.15;7.15;;;;;;;;;;5032962;28;20049;-69
2022/03/11 22:55:05;;;;;;;16.42;7.38;;;;;;;;;;5031902;28;20021;-70
2022/03/11 22:57:34;;;;;;;16.88;8.38;;;;;;;;;;5032826;28;20422;-69
2022/03/11 23:00:01;;;;;;;18.95;9.95;;;;;;;;;;5031537;28;20033;-69
2022/03/11 23:05:14;;;;;;;17.42;9.23;;;;;;;;;;5032927;28;20318;-69
2022/03/11 23:10:28;;;;;;;18.83;10.00;;;;;;;;;;5032935;28;20070;-69
2022/03/11 23:12:56;;;;;;;20.35;9.55;;;;;;;;;;5032773;28;20096;-69
2022/03/11 23:15:24;;;;;;;17.25;10.23;;;;;;;;;;5032804;28;20083;-69
2022/03/11 23:17:52;;;;;;;22.83;11.85;;;;;;;;;;5032760;28;20383;-69
2022/03/11 23:20:20;;;;;;;18.65;11.80;;;;;;;;;;5031550;28;20383;-69
2022/03/11 23:22:49;;;;;;;22.65;12.38;;;;;;;;;;5031690;28;20030;-69
2022/03/11 23:25:17;;;;;;;19.63;10.20;;;;;;;;;;5032682;28;20025;-68
2022/03/11 23:27:44;;;;;;;16.83;9.60;;;;;;;;;;5031496;28;20118;-69
2022/03/11 23:30:12;;;;;;;17.60;9.00;;;;;;;;;;5032578;28;20405;-69
2022/03/11 23:32:41;;;;;;;14.05;7.90;;;;;;;;;;5032627;28;20125;-69
2022/03/11 23:35:13;;;;;;;14.30;7.60;;;;;;;;;;5031532;28;20034;-68
2022/03/11 23:37:40;;;;;;;11.40;5.85;;;;;;;;;;5032558;28;20053;-68
2022/03/11 23:40:14;;;;;;;13.73;5.47;;;;;;;;;;5032514;28;20322;-69
2022/03/11 23:42:43;;;;;;;10.23;4.53;;;;;;;;;;5032416;28;20448;-69
2022/03/11 23:45:11;;;;;;;7.25;4.80;;;;;;;;;;5032382;28;20017;-68
2022/03/11 23:47:40;;;;;;;11.80;5.25;;;;;;;;;;5031381;28;20022;-69
2022/03/11 23:50:08;;;;;;;15.32;5.97;;;;;;;;;;5032370;28;20029;-69
2022/03/11 23:52:36;;;;;;;11.18;6.22;;;;;;;;;;5032352;28;20113;-69
2022/03/11 23:55:05;;;;;;;14.43;6.65;;;;;;;;;;5032165;28;20021;-69
2022/03/11 23:57:33;;;;;;;14.57;7.55;;;;;;;;;;5032218;28;20028;-69
